createdAt,value
2023-01-02T00:00:28.789Z,5.00
2023-01-02T00:02:56.781Z,7.90
2023-01-02T00:05:24.896Z,5.80
2023-01-02T00:07:53.411Z,4.78
2023-01-02T00:10:21.283Z,8.00
2023-01-02T00:12:49.146Z,6.15
2023-01-02T00:15:18.516Z,5.93
2023-01-02T00:17:46.425Z,5.63
2023-01-02T00:20:14.283Z,5.45
2023-01-02T00:22:42.113Z,9.25
2023-01-02T00:25:10.139Z,6.88
2023-01-02T00:27:38.131Z,7.47
2023-01-02T00:30:06.879Z,5.43
2023-01-02T00:32:36.149Z,9.32
2023-01-02T00:35:04.169Z,5.97
2023-01-02T00:37:32.064Z,5.45
2023-01-02T00:39:59.921Z,5.03
2023-01-02T00:42:27.765Z,7.72
2023-01-02T00:44:55.602Z,5.00
2023-01-02T00:47:23.494Z,6.68
2023-01-02T00:49:52.675Z,5.88
2023-01-02T00:52:20.574Z,5.32
2023-01-02T00:54:48.451Z,8.98
2023-01-02T00:57:16.301Z,6.25
2023-01-02T00:59:44.298Z,6.65
2023-01-02T01:02:12.296Z,7.38
2023-01-02T01:04:40.346Z,5.05
2023-01-02T01:07:09.554Z,6.38
2023-01-02T01:09:37.952Z,4.50
2023-01-02T01:12:06.108Z,6.45
2023-01-02T01:14:34.009Z,6.30
2023-01-02T01:17:01.901Z,8.95
2023-01-02T01:19:30.632Z,7.55
2023-01-02T01:21:58.509Z,6.63
2023-01-02T01:24:27.878Z,6.43
2023-01-02T01:26:55.744Z,6.28
2023-01-02T01:29:23.794Z,6.68
2023-01-02T01:31:51.690Z,5.95
2023-01-02T01:34:19.603Z,6.25
2023-01-02T01:36:47.457Z,6.60
2023-01-02T01:39:15.431Z,5.47
2023-01-02T01:41:44.616Z,6.18
2023-01-02T01:44:43.773Z,6.18
2023-01-02T01:47:23.872Z,4.93
2023-01-02T01:49:53.048Z,6.07
2023-01-02T01:52:23.242Z,5.43
2023-01-02T01:54:52.959Z,5.63
2023-01-02T01:57:23.549Z,4.85
2023-01-02T01:59:51.433Z,6.43
2023-01-02T02:02:19.363Z,5.85
2023-01-02T02:04:47.275Z,5.32
2023-01-02T02:07:15.194Z,4.93
2023-01-02T02:09:45.103Z,6.05
2023-01-02T02:12:12.962Z,5.03
2023-01-02T02:14:42.127Z,5.45
2023-01-02T02:17:15.351Z,4.80
2023-01-02T02:20:14.050Z,5.15
2023-01-02T02:23:00.056Z,6.10
2023-01-02T02:26:18.038Z,5.22
2023-01-02T02:29:08.516Z,5.43
2023-01-02T02:31:40.493Z,4.15
2023-01-02T02:34:10.207Z,5.05
2023-01-02T02:36:40.326Z,5.07
2023-01-02T02:39:11.985Z,4.45
2023-01-02T02:41:44.088Z,6.15
2023-01-02T02:44:19.468Z,6.07
2023-01-02T02:46:51.766Z,5.45
2023-01-02T02:49:25.553Z,5.22
2023-01-02T02:51:56.807Z,6.28
2023-01-02T02:54:25.658Z,6.88
2023-01-02T02:56:53.505Z,5.95
2023-01-02T02:59:21.412Z,6.35
2023-01-02T03:01:50.802Z,5.00
2023-01-02T03:04:19.368Z,5.18
2023-01-02T03:06:55.372Z,4.57
2023-01-02T03:09:26.286Z,5.22
2023-01-02T03:11:56.213Z,6.10
2023-01-02T03:14:28.508Z,5.82
2023-01-02T03:17:00.901Z,4.63
2023-01-02T03:19:31.083Z,4.68
2023-01-02T03:22:00.561Z,5.28
2023-01-02T03:24:28.849Z,6.10
2023-01-02T03:26:59.195Z,5.85
2023-01-02T03:29:31.161Z,6.10
2023-01-02T03:32:00.431Z,5.97
2023-01-02T03:34:29.626Z,5.03
2023-01-02T03:36:59.428Z,5.13
2023-01-02T03:39:28.309Z,9.48
2023-01-02T03:41:57.325Z,6.15
2023-01-02T03:44:27.485Z,5.00
2023-01-02T03:46:56.426Z,5.55
2023-01-02T03:49:28.093Z,5.90
2023-01-02T03:51:55.946Z,5.38
2023-01-02T03:54:23.845Z,6.40
2023-01-02T03:56:56.562Z,6.15
2023-01-02T03:59:29.115Z,8.43
2023-01-02T04:02:01.232Z,4.97
2023-01-02T04:04:33.401Z,5.45
2023-01-02T04:07:02.152Z,5.95
2023-01-02T04:09:30.593Z,5.80
2023-01-02T04:12:00.391Z,5.13
2023-01-02T04:14:31.309Z,5.43
2023-01-02T04:16:59.797Z,5.28
2023-01-02T04:19:29.972Z,7.15
2023-01-02T04:21:59.243Z,6.65
2023-01-02T04:24:29.132Z,6.13
2023-01-02T04:26:57.976Z,5.32
2023-01-02T04:29:25.978Z,5.68
2023-01-02T04:31:57.116Z,4.95
2023-01-02T04:34:24.947Z,5.65
2023-01-02T04:36:54.180Z,5.53
2023-01-02T04:39:22.050Z,5.30
2023-01-02T04:41:50.274Z,6.22
2023-01-02T04:44:18.137Z,5.47
2023-01-02T04:46:46.026Z,6.10
2023-01-02T04:49:13.889Z,5.13
2023-01-02T04:51:41.733Z,4.85
2023-01-02T04:54:11.649Z,6.40
2023-01-02T04:56:39.529Z,5.60
2023-01-02T04:59:07.455Z,4.82
2023-01-02T05:01:35.539Z,6.68
2023-01-02T05:04:03.529Z,5.88
2023-01-02T05:06:31.380Z,6.30
2023-01-02T05:08:59.719Z,5.75
2023-01-02T05:11:29.365Z,6.18
2023-01-02T05:14:00.100Z,4.85
2023-01-02T05:16:31.737Z,5.65
2023-01-02T05:18:59.627Z,5.40
2023-01-02T05:21:44.864Z,5.05
2023-01-02T05:24:12.736Z,5.78
2023-01-02T05:26:41.939Z,5.53
2023-01-02T05:29:09.820Z,5.05
2023-01-02T05:31:37.814Z,6.88
2023-01-02T05:34:05.737Z,5.82
2023-01-02T05:36:33.596Z,5.88
2023-01-02T05:39:01.605Z,6.72
2023-01-02T05:41:29.449Z,4.80
2023-01-02T05:43:58.675Z,4.85
2023-01-02T05:46:26.568Z,4.53
2023-01-02T05:48:54.432Z,6.13
2023-01-02T05:51:22.303Z,6.05
2023-01-02T05:53:50.869Z,6.22
2023-01-02T05:56:19.096Z,5.20
2023-01-02T05:58:48.081Z,5.80
2023-01-02T06:01:19.159Z,5.93
2023-01-02T06:03:47.248Z,5.90
2023-01-02T06:06:15.579Z,5.97
2023-01-02T06:08:43.420Z,6.18
2023-01-02T06:11:11.335Z,6.97
2023-01-02T06:13:39.451Z,5.50
2023-01-02T06:16:08.923Z,6.55
2023-01-02T06:18:39.372Z,15.35
2023-01-02T06:21:08.136Z,8.70
2023-01-02T06:23:36.053Z,5.53
2023-01-02T06:26:05.029Z,6.13
2023-01-02T06:28:32.941Z,4.70
2023-01-02T06:31:01.695Z,8.30
2023-01-02T06:33:29.759Z,9.50
2023-01-02T06:36:02.559Z,5.95
2023-01-02T06:38:30.494Z,8.35
2023-01-02T06:40:59.127Z,12.32
2023-01-02T06:43:27.153Z,35.60
2023-01-02T06:45:55.091Z,56.63
2023-01-02T06:48:22.997Z,61.35
2023-01-02T06:50:50.889Z,84.55
2023-01-02T06:53:20.082Z,89.88
2023-01-02T06:55:52.229Z,73.97
2023-01-02T06:58:20.365Z,67.70
2023-01-02T07:00:48.278Z,47.38
2023-01-02T07:03:16.449Z,57.17
2023-01-02T07:05:44.362Z,62.83
2023-01-02T07:08:12.259Z,73.85
2023-01-02T07:10:41.522Z,59.00
2023-01-02T07:13:09.392Z,73.95
2023-01-02T07:15:37.407Z,91.40
2023-01-02T07:18:05.423Z,76.35
2023-01-02T07:20:33.291Z,83.07
2023-01-02T07:23:01.154Z,78.78
2023-01-02T07:25:29.059Z,79.28
2023-01-02T07:27:59.980Z,70.10
2023-01-02T07:30:27.975Z,69.22
2023-01-02T07:32:55.840Z,61.55
2023-01-02T07:35:23.681Z,67.05
2023-01-02T07:37:51.549Z,59.63
2023-01-02T07:40:19.434Z,47.97
2023-01-02T07:42:47.346Z,55.90
2023-01-02T07:45:18.028Z,59.13
2023-01-02T07:47:45.904Z,48.58
2023-01-02T07:50:13.762Z,48.58
2023-01-02T07:52:43.052Z,50.75
2023-01-02T07:55:11.125Z,47.65
2023-01-02T07:57:38.975Z,48.50
2023-01-02T08:00:07.954Z,43.55
2023-01-02T08:02:41.264Z,40.80
2023-01-02T08:05:09.632Z,43.63
2023-01-02T08:07:44.469Z,37.08
2023-01-02T08:10:12.837Z,43.95
2023-01-02T08:12:40.839Z,39.85
2023-01-02T08:15:09.560Z,37.28
2023-01-02T08:17:37.486Z,40.55
2023-01-02T08:20:08.588Z,40.58
2023-01-02T08:22:36.567Z,33.28
2023-01-02T08:25:04.722Z,32.03
2023-01-02T08:27:32.616Z,34.95
2023-01-02T08:30:00.575Z,29.55
2023-01-02T08:32:28.485Z,34.97
2023-01-02T08:34:56.344Z,35.35
2023-01-02T08:37:25.536Z,32.30
2023-01-02T08:39:53.402Z,27.08
2023-01-02T08:42:21.304Z,36.85
2023-01-02T08:44:49.160Z,46.05
2023-01-02T08:47:17.183Z,44.00
2023-01-02T08:49:45.287Z,45.05
2023-01-02T08:52:13.163Z,113.82
2023-01-02T08:54:42.444Z,118.50
2023-01-02T08:57:10.330Z,112.30
2023-01-02T08:59:38.306Z,84.28
2023-01-02T09:02:06.285Z,81.90
2023-01-02T09:04:34.281Z,85.20
2023-01-02T09:07:02.190Z,65.65
2023-01-02T09:09:30.108Z,71.72
2023-01-02T09:12:00.331Z,64.25
2023-01-02T09:14:28.280Z,62.22
2023-01-02T09:16:57.920Z,64.55
2023-01-02T09:19:25.786Z,60.17
2023-01-02T09:21:53.862Z,65.97
2023-01-02T09:24:21.783Z,62.60
2023-01-02T09:26:49.754Z,59.92
2023-01-02T09:29:19.436Z,61.17
2023-01-02T09:31:47.358Z,50.53
2023-01-02T09:34:15.302Z,59.10
2023-01-02T09:36:43.186Z,55.33
2023-01-02T09:39:12.576Z,59.92
2023-01-02T09:41:40.984Z,53.47
2023-01-02T09:44:12.158Z,48.95
2023-01-02T09:46:46.891Z,50.00
2023-01-02T09:49:16.847Z,48.58
2023-01-02T09:51:44.799Z,45.60
2023-01-02T09:54:23.299Z,43.05
2023-01-02T09:56:53.506Z,45.17
2023-01-02T09:59:24.617Z,49.40
2023-01-02T10:02:00.832Z,46.53
2023-01-02T10:04:35.655Z,40.92
2023-01-02T10:07:07.927Z,44.50
2023-01-02T10:09:39.112Z,41.15
2023-01-02T10:12:10.079Z,40.13
2023-01-02T10:14:44.462Z,43.65
2023-01-02T10:17:15.282Z,37.90
2023-01-02T10:19:47.702Z,37.63
2023-01-02T10:22:18.246Z,41.30
2023-01-02T10:24:46.981Z,37.60
2023-01-02T10:27:18.176Z,35.35
2023-01-02T10:29:49.755Z,38.47
2023-01-02T10:32:19.934Z,33.53
2023-01-02T10:34:51.765Z,33.95
2023-01-02T10:37:19.656Z,32.58
2023-01-02T10:39:49.516Z,36.22
2023-01-02T10:42:17.368Z,35.95
2023-01-02T10:44:46.143Z,35.78
2023-01-02T10:47:20.260Z,30.95
2023-01-02T10:49:48.709Z,39.13
2023-01-02T10:52:20.226Z,32.60
2023-01-02T10:54:58.931Z,32.03
2023-01-02T10:57:34.701Z,28.60
2023-01-02T11:00:04.624Z,29.60
2023-01-02T11:02:38.611Z,30.95
2023-01-02T11:05:07.532Z,27.13
2023-01-02T11:07:36.339Z,29.25
2023-01-02T11:10:04.482Z,25.58
2023-01-02T11:12:33.179Z,18.73
2023-01-02T11:15:14.293Z,21.00
2023-01-02T11:17:44.641Z,21.40
2023-01-02T11:20:26.479Z,19.10
2023-01-02T11:22:55.868Z,23.13
2023-01-02T11:25:24.513Z,19.52
2023-01-02T11:27:52.471Z,20.13
2023-01-02T11:30:36.175Z,18.73
2023-01-02T11:33:08.299Z,24.90
2023-01-02T11:35:39.516Z,21.73
2023-01-02T11:38:14.516Z,18.50
2023-01-02T11:40:52.728Z,17.73
2023-01-02T11:43:39.447Z,21.90
2023-01-02T11:46:10.484Z,19.75
2023-01-02T11:48:39.780Z,23.10
2023-01-02T11:51:17.270Z,20.60
2023-01-02T11:53:47.451Z,20.55
2023-01-02T11:56:19.669Z,18.73
2023-01-02T11:58:51.565Z,21.00
2023-01-02T12:01:20.457Z,18.55
2023-01-02T12:03:49.780Z,21.10
2023-01-02T12:06:19.413Z,19.27
2023-01-02T12:08:59.649Z,18.05
2023-01-02T12:11:33.567Z,15.00
2023-01-02T12:14:06.815Z,18.55
2023-01-02T12:16:38.068Z,16.65
2023-01-02T12:19:32.070Z,14.35
2023-01-02T12:22:06.114Z,13.43
2023-01-02T12:24:40.940Z,14.82
2023-01-02T12:27:10.264Z,17.25
2023-01-02T12:29:56.745Z,15.68
2023-01-02T12:32:50.344Z,17.10
2023-01-02T12:35:26.637Z,17.95
2023-01-02T12:37:55.474Z,18.40
2023-01-02T12:40:40.517Z,16.50
2023-01-02T12:43:22.795Z,17.63
2023-01-02T12:45:53.750Z,12.93
2023-01-02T12:48:31.958Z,14.35
2023-01-02T12:51:13.788Z,15.75
2023-01-02T12:54:20.126Z,14.65
2023-01-02T12:56:41.201Z,12.75
2023-01-02T12:59:18.473Z,15.95
2023-01-02T13:01:50.273Z,15.13
2023-01-02T13:04:19.787Z,15.15
2023-01-02T13:06:51.603Z,14.55
2023-01-02T13:09:26.465Z,13.93
2023-01-02T13:11:58.702Z,15.88
2023-01-02T13:14:28.940Z,13.85
2023-01-02T13:16:59.289Z,14.48
2023-01-02T13:19:32.067Z,13.82
2023-01-02T13:22:04.989Z,15.07
2023-01-02T13:24:32.896Z,13.52
2023-01-02T13:27:00.756Z,14.00
2023-01-02T13:29:29.924Z,12.57
2023-01-02T13:31:57.914Z,10.32
2023-01-02T13:34:26.923Z,13.68
2023-01-02T13:37:01.505Z,13.73
2023-01-02T13:39:30.512Z,14.82
2023-01-02T13:42:17.137Z,10.65
2023-01-02T13:44:45.925Z,11.35
2023-01-02T13:47:20.908Z,14.18
2023-01-02T13:49:58.137Z,11.93
2023-01-02T13:52:27.333Z,11.85
2023-01-02T13:55:31.391Z,14.73
2023-01-02T13:58:24.058Z,12.98
2023-01-02T14:01:00.129Z,12.43
2023-01-02T14:03:38.233Z,12.60
2023-01-02T14:06:07.196Z,11.48
2023-01-02T14:08:37.440Z,10.80
2023-01-02T14:11:09.663Z,11.38
2023-01-02T14:13:38.464Z,13.40
2023-01-02T14:16:36.110Z,11.65
2023-01-02T14:19:16.817Z,11.13
2023-01-02T14:21:45.767Z,10.93
2023-01-02T14:24:29.735Z,11.13
2023-01-02T14:26:59.305Z,10.43
2023-01-02T14:29:27.225Z,9.85
2023-01-02T14:32:03.512Z,10.40
2023-01-02T14:34:31.399Z,9.35
2023-01-02T14:36:59.832Z,9.90
2023-01-02T14:39:30.383Z,11.77
2023-01-02T14:42:44.295Z,8.38
2023-01-02T14:45:18.900Z,10.25
2023-01-02T14:47:49.810Z,12.00
2023-01-02T14:50:19.449Z,10.10
2023-01-02T14:52:50.044Z,8.85
2023-01-02T14:55:20.939Z,10.82
2023-01-02T14:57:49.913Z,9.77
2023-01-02T15:00:27.000Z,10.82
2023-01-02T15:02:59.597Z,8.63
2023-01-02T15:05:34.569Z,9.65
2023-01-02T15:08:02.766Z,9.18
2023-01-02T15:10:31.994Z,9.20
2023-01-02T15:13:07.481Z,8.93
2023-01-02T15:15:38.084Z,10.32
2023-01-02T15:18:07.165Z,8.88
2023-01-02T15:20:35.414Z,12.32
2023-01-02T15:23:03.336Z,12.20
2023-01-02T15:25:37.046Z,11.27
2023-01-02T15:28:05.133Z,10.77
2023-01-02T15:30:38.221Z,11.77
2023-01-02T15:33:06.731Z,12.35
2023-01-02T15:35:36.055Z,9.75
2023-01-02T15:38:05.179Z,8.65
2023-01-02T15:40:35.311Z,9.35
2023-01-02T15:43:22.453Z,10.27
2023-01-02T15:45:51.464Z,8.50
2023-01-02T15:48:20.257Z,9.65
2023-01-02T15:50:48.347Z,11.55
2023-01-02T15:53:18.376Z,10.38
2023-01-02T15:55:47.605Z,11.27
2023-01-02T15:58:24.757Z,8.35
2023-01-02T16:01:14.449Z,8.90
2023-01-02T16:04:02.920Z,9.23
2023-01-02T16:06:32.654Z,9.40
2023-01-02T16:09:01.891Z,12.57
2023-01-02T16:11:31.128Z,7.60
2023-01-02T16:14:17.839Z,6.93
2023-01-02T16:16:49.748Z,8.38
2023-01-02T16:19:20.866Z,8.80
2023-01-02T16:21:48.737Z,8.65
2023-01-02T16:24:18.979Z,11.30
2023-01-02T16:26:48.186Z,10.25
2023-01-02T16:29:17.256Z,9.00
2023-01-02T16:32:01.856Z,7.25
2023-01-02T16:34:32.752Z,9.00
2023-01-02T16:37:11.536Z,9.10
2023-01-02T16:39:43.209Z,8.48
2023-01-02T16:42:29.816Z,8.65
2023-01-02T16:44:57.765Z,8.07
2023-01-02T16:47:25.775Z,11.00
2023-01-02T16:49:53.638Z,7.88
2023-01-02T16:52:21.522Z,7.93
2023-01-02T16:54:54.064Z,7.50
2023-01-02T16:57:23.716Z,9.77
2023-01-02T16:59:51.627Z,8.15
2023-01-02T17:02:19.712Z,8.23
2023-01-02T17:04:47.682Z,8.20
2023-01-02T17:07:20.208Z,7.82
2023-01-02T17:09:50.115Z,7.85
2023-01-02T17:12:18.007Z,11.43
2023-01-02T17:14:47.383Z,8.68
2023-01-02T17:17:15.257Z,8.27
2023-01-02T17:19:43.201Z,8.23
2023-01-02T17:22:11.119Z,8.95
2023-01-02T17:24:39.098Z,7.53
2023-01-02T17:27:07.015Z,7.68
2023-01-02T17:29:34.994Z,7.95
2023-01-02T17:32:04.816Z,9.73
2023-01-02T17:34:33.031Z,9.38
2023-01-02T17:37:01.069Z,9.52
2023-01-02T17:39:29.090Z,9.32
2023-01-02T17:41:57.079Z,7.50
2023-01-02T17:44:24.991Z,6.40
2023-01-02T17:49:42.373Z,7.85
2023-01-02T17:52:12.417Z,9.90
2023-01-02T17:54:40.331Z,7.57
2023-01-02T17:57:09.208Z,9.68
2023-01-02T17:59:37.128Z,7.28
2023-01-02T18:02:05.315Z,7.07
2023-01-02T18:04:33.410Z,7.13
2023-01-02T18:07:02.743Z,8.13
2023-01-02T18:09:31.084Z,9.27
2023-01-02T18:11:59.217Z,8.45
2023-01-02T18:14:28.253Z,8.88
2023-01-02T18:16:57.313Z,6.85
2023-01-02T18:19:26.098Z,8.32
2023-01-02T18:21:54.149Z,9.60
2023-01-02T18:24:27.856Z,11.70
2023-01-02T18:26:57.540Z,7.75
2023-01-02T18:29:25.591Z,8.32
2023-01-02T18:31:53.496Z,8.48
2023-01-02T18:37:16.864Z,7.10
2023-01-02T18:39:46.136Z,8.73
2023-01-02T18:42:17.397Z,8.23
2023-01-02T18:44:45.325Z,12.35
2023-01-02T18:47:19.242Z,10.00
2023-01-02T18:49:47.127Z,13.80
2023-01-02T18:52:24.349Z,9.85
2023-01-02T18:55:00.159Z,11.57
2023-01-02T18:57:31.396Z,16.10
2023-01-02T19:00:14.739Z,13.88
2023-01-02T19:02:52.111Z,12.13
2023-01-02T19:05:23.029Z,12.98
2023-01-02T19:07:50.926Z,12.45
2023-01-02T19:10:37.021Z,9.63
2023-01-02T19:13:08.103Z,11.73
2023-01-02T19:15:40.507Z,12.18
2023-01-02T19:18:24.336Z,11.15
2023-01-02T19:20:55.864Z,14.15
2023-01-02T19:23:30.666Z,11.57
2023-01-02T19:26:08.301Z,10.25
2023-01-02T19:28:36.152Z,12.82
2023-01-02T19:31:04.042Z,9.27
2023-01-02T19:33:38.533Z,12.63
2023-01-02T19:36:08.897Z,13.48
2023-01-02T19:38:37.326Z,10.63
2023-01-02T19:41:06.539Z,9.98
2023-01-02T19:43:34.967Z,16.48
2023-01-02T19:46:02.913Z,7.65
2023-01-02T19:48:30.802Z,10.35
2023-01-02T19:50:58.645Z,11.68
2023-01-02T19:53:26.496Z,11.43
2023-01-02T19:55:54.370Z,9.27
2023-01-02T19:58:23.602Z,12.70
2023-01-02T20:00:51.495Z,9.05
2023-01-02T20:03:19.408Z,9.05
2023-01-02T20:05:47.292Z,16.70
2023-01-02T20:08:15.110Z,8.90
2023-01-02T20:10:43.009Z,10.68
2023-01-02T20:13:10.916Z,11.02
2023-01-02T20:15:40.683Z,10.90
2023-01-02T20:18:09.128Z,9.30
2023-01-02T20:20:38.196Z,8.60
2023-01-02T20:23:06.176Z,8.38
2023-01-02T20:25:34.022Z,8.57
2023-01-02T20:28:03.304Z,10.40
2023-01-02T20:30:31.185Z,9.15
2023-01-02T20:33:01.302Z,8.82
2023-01-02T20:35:29.191Z,9.68
2023-01-02T20:37:57.135Z,6.50
2023-01-02T20:40:25.240Z,14.10
2023-01-02T20:42:53.146Z,8.73
2023-01-02T20:45:20.998Z,6.03
2023-01-02T20:47:48.821Z,8.30
2023-01-02T20:50:18.233Z,7.13
2023-01-02T20:52:46.093Z,7.03
2023-01-02T20:55:14.040Z,6.65
2023-01-02T20:57:41.954Z,8.60
2023-01-02T21:00:10.764Z,9.68
2023-01-02T21:02:38.903Z,8.52
2023-01-02T21:05:07.163Z,9.93
2023-01-02T21:07:36.365Z,6.90
2023-01-02T21:10:04.348Z,6.50
2023-01-02T21:12:49.946Z,7.75
2023-01-02T21:15:31.893Z,8.10
2023-01-02T21:17:59.768Z,5.75
2023-01-02T21:20:27.610Z,7.80
2023-01-02T21:22:56.850Z,10.05
2023-01-02T21:25:24.682Z,9.50
2023-01-02T21:27:52.646Z,8.57
2023-01-02T21:30:20.573Z,8.05
2023-01-02T21:32:48.506Z,7.20
2023-01-02T21:35:16.606Z,9.48
2023-01-02T21:37:44.451Z,11.30
2023-01-02T21:40:13.891Z,8.15
2023-01-02T21:42:44.866Z,11.90
2023-01-02T21:45:13.223Z,9.38
2023-01-02T21:47:41.079Z,10.60
2023-01-02T21:50:09.751Z,7.57
2023-01-02T21:52:37.804Z,7.65
2023-01-02T21:55:06.340Z,10.98
2023-01-02T21:58:03.176Z,13.15
2023-01-02T22:00:25.141Z,9.32
2023-01-02T22:02:53.271Z,10.25
2023-01-02T22:05:22.381Z,11.23
2023-01-02T22:07:50.309Z,16.52
2023-01-02T22:10:18.262Z,14.48
2023-01-02T22:12:47.485Z,8.55
2023-01-02T22:15:15.337Z,9.68
2023-01-02T22:17:43.498Z,8.90
2023-01-02T22:20:12.043Z,11.30
2023-01-02T22:22:39.954Z,11.88
2023-01-02T22:25:08.958Z,9.10
2023-01-02T22:27:36.943Z,8.73
2023-01-02T22:30:29.330Z,10.73
2023-01-02T22:32:55.321Z,9.07
2023-01-02T22:35:23.194Z,8.73
2023-01-02T22:37:51.057Z,7.63
2023-01-02T22:40:18.889Z,11.48
2023-01-02T22:43:01.641Z,9.77
2023-01-02T22:45:34.324Z,9.45
2023-01-02T22:48:04.370Z,8.55
2023-01-02T22:50:36.210Z,9.23
2023-01-02T22:53:23.559Z,9.65
2023-01-02T22:55:51.517Z,8.45
2023-01-02T22:58:19.621Z,8.90
2023-01-02T23:00:50.733Z,11.90
2023-01-02T23:03:18.628Z,8.55
2023-01-02T23:05:46.526Z,9.02
2023-01-02T23:08:14.509Z,8.77
2023-01-02T23:10:42.465Z,9.32
2023-01-02T23:13:10.388Z,12.48
2023-01-02T23:15:59.718Z,8.63
2023-01-02T23:18:50.468Z,10.32
2023-01-02T23:21:24.591Z,10.40
2023-01-02T23:23:52.599Z,9.90
2023-01-02T23:26:20.471Z,8.45
2023-01-02T23:31:36.690Z,14.35
2023-01-02T23:34:06.035Z,8.95
2023-01-02T23:36:33.946Z,10.20
2023-01-02T23:39:01.791Z,7.85
2023-01-02T23:41:29.669Z,12.77
2023-01-02T23:43:57.979Z,10.35
2023-01-02T23:46:25.882Z,8.52
2023-01-02T23:48:53.894Z,8.55
2023-01-02T23:51:23.173Z,9.25
2023-01-02T23:53:51.040Z,11.65
2023-01-02T23:56:20.216Z,11.50
2023-01-02T23:58:48.243Z,11.18
